Time;durP1;ratioP1;P1;durP2;ratioP2;P2;SDS_P1;SDS_P2;PMS_P1;PMS_P2;Temp;Humidity;BMP_temperature;BMP_pressure;BME280_temperature;BME280_humidity;BME280_pressure;Samples;Min_cycle;Max_cycle;Signal;HPM_P1;HPM_P2
2023/12/02 00:00:19;;;;;;;20.45;14.75;;;3.90;62.50;;;;;;5031428;28;20120;-57
2023/12/02 00:02:48;;;;;;;22.55;15.63;;;3.90;62.50;;;;;;5024524;28;20091;-53
2023/12/02 00:05:18;;;;;;;23.65;16.40;;;4.00;62.60;;;;;;5026739;28;20126;-55
2023/12/02 00:07:44;;;;;;;22.75;15.93;;;4.00;62.50;;;;;;5030954;28;20040;-53
2023/12/02 00:10:11;;;;;;;23.65;14.85;;;4.00;62.60;;;;;;5031576;28;20045;-56
2023/12/02 00:12:38;;;;;;;22.35;15.77;;;4.00;62.50;;;;;;5028005;28;20041;-58
2023/12/02 00:15:06;;;;;;;22.13;14.45;;;4.00;62.50;;;;;;5031059;28;20216;-55
2023/12/02 00:17:33;;;;;;;23.73;15.20;;;4.00;62.40;;;;;;5030261;28;20061;-58
2023/12/02 00:20:00;;;;;;;20.05;14.82;;;4.00;62.40;;;;;;5030004;28;20412;-57
2023/12/02 00:22:27;;;;;;;20.35;14.75;;;4.00;62.30;;;;;;5026415;28;20069;-58
2023/12/02 00:24:54;;;;;;;22.02;14.38;;;3.90;62.10;;;;;;5026538;28;20041;-54
2023/12/02 00:27:23;;;;;;;20.88;13.90;;;4.00;62.20;;;;;;5029324;28;20041;-57
2023/12/02 00:29:50;;;;;;;20.95;14.18;;;3.90;62.20;;;;;;5030937;28;20041;-57
2023/12/02 00:32:17;;;;;;;20.55;13.73;;;3.90;62.20;;;;;;5030664;28;20411;-57
2023/12/02 00:34:56;;;;;;;19.75;13.82;;;3.90;62.20;;;;;;5020432;28;20508;-57
2023/12/02 00:37:23;;;;;;;19.83;13.40;;;4.00;62.40;;;;;;5030038;28;20128;-57
2023/12/02 00:39:49;;;;;;;19.55;12.88;;;3.90;62.40;;;;;;5030922;28;20049;-57
2023/12/02 00:42:16;;;;;;;19.45;12.90;;;3.90;62.20;;;;;;5027007;28;20512;-57
2023/12/02 00:44:45;;;;;;;21.35;13.27;;;3.90;62.20;;;;;;5024951;28;20041;-57
2023/12/02 00:47:11;;;;;;;19.42;13.65;;;3.90;62.20;;;;;;5030169;28;20060;-55
2023/12/02 00:49:41;;;;;;;20.27;13.52;;;3.80;62.10;;;;;;5030505;28;20042;-55
2023/12/02 00:52:10;;;;;;;22.45;13.95;;;3.80;62.00;;;;;;5030789;28;20048;-56
2023/12/02 00:54:37;;;;;;;22.60;15.05;;;3.80;62.00;;;;;;5020130;28;20046;-58
2023/12/02 00:57:05;;;;;;;21.38;14.05;;;3.80;62.10;;;;;;5030137;28;20033;-57
2023/12/02 00:59:35;;;;;;;21.40;14.50;;;3.80;62.20;;;;;;5030236;28;20049;-57
2023/12/02 01:02:02;;;;;;;22.67;15.38;;;3.80;62.10;;;;;;5030343;28;20123;-57
2023/12/02 01:04:31;;;;;;;24.23;15.75;;;3.80;62.00;;;;;;5026242;28;20526;-57
2023/12/02 01:06:58;;;;;;;24.17;16.35;;;3.80;62.00;;;;;;5029481;28;20045;-57
2023/12/02 01:09:26;;;;;;;22.75;15.38;;;3.80;62.00;;;;;;5029856;28;20073;-56
2023/12/02 01:11:54;;;;;;;21.33;14.50;;;3.70;62.00;;;;;;5027967;28;20455;-58
2023/12/02 01:14:21;;;;;;;21.15;13.93;;;3.70;62.00;;;;;;5030077;28;20041;-56
2023/12/02 01:16:48;;;;;;;21.40;14.38;;;3.70;61.90;;;;;;5029853;28;20049;-57
2023/12/02 01:19:14;;;;;;;23.70;14.75;;;3.70;61.90;;;;;;5030271;28;20096;-57
2023/12/02 01:21:41;;;;;;;23.25;15.93;;;3.70;61.90;;;;;;5025429;28;20045;-55
2023/12/02 01:24:09;;;;;;;20.15;13.55;;;3.60;61.70;;;;;;5026099;28;20045;-58
2023/12/02 01:26:35;;;;;;;19.88;13.13;;;3.60;61.70;;;;;;5028933;28;20140;-57
2023/12/02 01:29:02;;;;;;;21.27;14.63;;;3.60;61.80;;;;;;5030115;28;20041;-58
2023/12/02 01:31:32;;;;;;;22.27;14.60;;;3.60;61.70;;;;;;5027745;28;20073;-57
2023/12/02 01:33:59;;;;;;;20.00;13.25;;;3.60;61.70;;;;;;5029761;28;20124;-56
2023/12/02 01:36:25;;;;;;;19.98;13.20;;;3.50;61.80;;;;;;5028692;28;20049;-56
2023/12/02 01:38:56;;;;;;;23.05;14.57;;;3.50;61.70;;;;;;5029938;28;20096;-58
2023/12/02 01:41:25;;;;;;;20.45;14.00;;;3.50;61.80;;;;;;5026729;28;20046;-57
2023/12/02 01:43:52;;;;;;;21.38;14.20;;;3.50;61.90;;;;;;5026313;28;20119;-56
2023/12/02 01:46:21;;;;;;;20.55;14.35;;;3.50;61.80;;;;;;5029203;28;20112;-57
2023/12/02 01:48:48;;;;;;;20.42;13.20;;;3.50;61.80;;;;;;5028950;28;20041;-57
2023/12/02 01:51:16;;;;;;;21.27;13.70;;;3.50;61.90;;;;;;5029321;28;20053;-56
2023/12/02 01:53:43;;;;;;;22.90;14.88;;;3.50;61.90;;;;;;5026293;28;20049;-57
2023/12/02 01:56:14;;;;;;;21.38;13.77;;;3.50;61.80;;;;;;5026451;28;20100;-56
2023/12/02 01:58:44;;;;;;;23.27;15.13;;;3.60;61.90;;;;;;5029168;28;20047;-57
2023/12/02 02:01:14;;;;;;;23.58;14.52;;;3.50;62.00;;;;;;5026981;28;20056;-54
2023/12/02 02:03:45;;;;;;;23.60;15.48;;;3.50;62.10;;;;;;5025978;28;20207;-56
2023/12/02 02:06:12;;;;;;;24.65;14.95;;;3.60;62.20;;;;;;5028196;28;20054;-56
2023/12/02 02:08:39;;;;;;;26.33;17.27;;;3.50;62.10;;;;;;5026934;28;20041;-55
2023/12/02 02:11:09;;;;;;;25.38;15.75;;;3.60;62.00;;;;;;5026706;28;20084;-57
2023/12/02 02:13:38;;;;;;;21.80;14.82;;;3.60;61.90;;;;;;5028945;28;20488;-57
2023/12/02 02:16:05;;;;;;;24.17;15.43;;;3.60;61.90;;;;;;5028868;28;20037;-57
2023/12/02 02:18:38;;;;;;;24.73;15.90;;;3.60;61.90;;;;;;5025714;28;20064;-57
2023/12/02 02:21:05;;;;;;;23.70;15.43;;;3.60;62.00;;;;;;5024928;28;20042;-57
2023/12/02 02:23:35;;;;;;;23.35;14.73;;;3.60;62.00;;;;;;5027826;28;20068;-55
2023/12/02 02:26:02;;;;;;;25.00;16.55;;;3.60;62.50;;;;;;5025453;28;20041;-56
2023/12/02 02:28:29;;;;;;;24.05;16.25;;;3.60;61.90;;;;;;5043888;28;20866;-58
2023/12/02 02:30:56;;;;;;;24.05;15.27;;;3.60;62.00;;;;;;5023852;28;20068;-58
2023/12/02 02:33:23;;;;;;;22.63;14.52;;;3.60;62.10;;;;;;5023789;28;20574;-55
2023/12/02 02:35:50;;;;;;;22.75;14.60;;;3.60;62.20;;;;;;5028610;28;20814;-57
2023/12/02 02:38:20;;;;;;;20.95;13.40;;;3.60;62.30;;;;;;5028138;28;20168;-57
2023/12/02 02:40:52;;;;;;;18.77;12.35;;;3.60;62.20;;;;;;5026565;28;20052;-55
2023/12/02 02:43:24;;;;;;;17.63;11.65;;;3.60;62.10;;;;;;5026662;28;20041;-56
2023/12/02 02:45:51;;;;;;;19.23;12.55;;;3.60;62.00;;;;;;5033089;28;20112;-52
2023/12/02 02:48:19;;;;;;;19.42;12.82;;;3.60;61.90;;;;;;5032810;28;20045;-58
2023/12/02 02:50:45;;;;;;;18.80;11.98;;;3.60;61.80;;;;;;5032668;28;20477;-58
2023/12/02 02:53:13;;;;;;;19.10;13.50;;;3.60;61.90;;;;;;5029269;28;20492;-55
2023/12/02 02:55:40;;;;;;;20.05;13.02;;;3.60;61.90;;;;;;5027008;28;20051;-57
2023/12/02 02:58:07;;;;;;;20.30;12.15;;;3.60;61.90;;;;;;5032299;28;20111;-56
2023/12/02 03:00:33;;;;;;;21.33;13.52;;;3.60;61.90;;;;;;5031670;28;20164;-57
2023/12/02 03:03:03;;;;;;;20.10;14.02;;;3.60;62.00;;;;;;5032187;28;20042;-56
2023/12/02 03:05:30;;;;;;;21.58;13.73;;;3.60;61.80;;;;;;5030471;28;20077;-57
2023/12/02 03:07:56;;;;;;;18.83;12.23;;;3.50;61.90;;;;;;5031616;28;20120;-56
2023/12/02 03:10:26;;;;;;;18.85;12.65;;;3.50;61.80;;;;;;5029984;28;20045;-57
2023/12/02 03:12:55;;;;;;;19.08;11.90;;;3.60;61.80;;;;;;5030955;28;20037;-57
2023/12/02 03:15:27;;;;;;;16.33;11.25;;;3.50;61.80;;;;;;5032830;28;20049;-58
2023/12/02 03:17:54;;;;;;;18.80;12.63;;;3.50;61.90;;;;;;5031370;28;20055;-55
2023/12/02 03:20:24;;;;;;;17.83;10.98;;;3.50;62.00;;;;;;5030549;28;20056;-56
2023/12/02 03:22:52;;;;;;;16.77;11.73;;;3.50;61.90;;;;;;5031707;28;20041;-56
2023/12/02 03:25:19;;;;;;;16.30;10.57;;;3.50;61.70;;;;;;5027674;28;20069;-57
2023/12/02 03:27:48;;;;;;;16.90;11.50;;;3.50;61.70;;;;;;5031372;28;20073;-56
2023/12/02 03:30:14;;;;;;;15.88;10.65;;;3.50;61.70;;;;;;5032251;28;20075;-57
2023/12/02 03:32:43;;;;;;;17.80;10.48;;;3.40;61.70;;;;;;5030439;28;20111;-57
2023/12/02 03:35:10;;;;;;;13.95;10.00;;;3.50;61.70;;;;;;5029753;28;20041;-55
2023/12/02 03:37:37;;;;;;;16.15;10.85;;;3.50;61.60;;;;;;5031349;28;20065;-56
2023/12/02 03:40:05;;;;;;;16.25;10.43;;;3.50;61.60;;;;;;5031192;28;20526;-56
2023/12/02 03:42:32;;;;;;;14.93;9.82;;;3.40;61.50;;;;;;5028939;28;20045;-57
2023/12/02 03:44:59;;;;;;;14.88;10.20;;;3.50;61.60;;;;;;5029196;28;20436;-57
2023/12/02 03:47:28;;;;;;;16.75;11.02;;;3.40;61.40;;;;;;5031638;28;20521;-57
2023/12/02 03:49:57;;;;;;;15.85;10.20;;;3.40;61.40;;;;;;5056992;22;20167;-50
2023/12/02 03:52:30;;;;;;;14.25;9.82;;;3.40;62.20;;;;;;5068423;28;20045;-51
2023/12/02 03:54:59;;;;;;;15.93;10.88;;;3.40;61.60;;;;;;5063019;28;20068;-50
2023/12/02 03:57:26;;;;;;;17.10;10.02;;;3.40;61.70;;;;;;5071268;28;20525;-49
2023/12/02 03:59:54;;;;;;;17.35;11.00;;;3.40;61.70;;;;;;5067903;28;20170;-51
2023/12/02 04:02:21;;;;;;;16.02;11.02;;;3.40;61.60;;;;;;5047954;28;20056;-49
2023/12/02 04:04:47;;;;;;;13.40;9.02;;;3.40;61.60;;;;;;5051059;28;20120;-48
2023/12/02 04:07:14;;;;;;;14.05;9.32;;;3.50;61.80;;;;;;5050314;28;20702;-53
2023/12/02 04:09:43;;;;;;;15.05;10.30;;;3.40;61.80;;;;;;5050880;28;20098;-49
2023/12/02 04:12:10;;;;;;;14.07;9.55;;;3.40;61.70;;;;;;5048932;28;20393;-50
2023/12/02 04:14:39;;;;;;;15.70;10.07;;;3.40;61.60;;;;;;5052617;28;20051;-53
2023/12/02 04:17:06;;;;;;;15.43;10.68;;;3.40;61.50;;;;;;5051398;28;20068;-52
2023/12/02 04:19:34;;;;;;;15.73;10.30;;;3.40;61.60;;;;;;5050253;28;20095;-49
2023/12/02 04:22:03;;;;;;;15.82;11.02;;;3.50;61.80;;;;;;5048801;28;20534;-48
2023/12/02 04:24:30;;;;;;;14.57;10.63;;;3.50;61.70;;;;;;5046098;28;20439;-49
2023/12/02 04:26:59;;;;;;;15.32;9.98;;;3.50;61.80;;;;;;5050983;28;20407;-48
2023/12/02 04:29:28;;;;;;;13.95;9.93;;;3.50;61.70;;;;;;5050312;28;20059;-49
2023/12/02 04:31:57;;;;;;;15.68;10.15;;;3.50;61.60;;;;;;5048350;28;20099;-51
2023/12/02 04:34:25;;;;;;;15.50;10.02;;;3.50;61.60;;;;;;5049280;28;20044;-49
2023/12/02 04:36:54;;;;;;;13.00;9.73;;;3.50;61.60;;;;;;5051155;28;20105;-51
2023/12/02 04:39:22;;;;;;;16.10;11.07;;;3.50;61.70;;;;;;5050229;28;20069;-48
2023/12/02 04:41:48;;;;;;;13.25;9.80;;;3.50;61.80;;;;;;5048063;28;20040;-53
2023/12/02 04:44:15;;;;;;;15.57;10.38;;;3.50;61.70;;;;;;5047839;28;20119;-49
2023/12/02 04:46:44;;;;;;;13.55;9.38;;;3.50;61.50;;;;;;5050672;28;20469;-50
2023/12/02 04:49:13;;;;;;;15.50;9.93;;;3.50;61.50;;;;;;5046561;28;20090;-50
2023/12/02 04:51:42;;;;;;;16.70;9.88;;;3.50;61.70;;;;;;5050278;28;20079;-51
2023/12/02 04:54:10;;;;;;;16.38;9.68;;;3.50;61.60;;;;;;5041419;28;20064;-54
2023/12/02 04:56:38;;;;;;;14.27;9.02;;;3.50;61.50;;;;;;5050697;28;20032;-50
2023/12/02 04:59:05;;;;;;;13.30;9.13;;;3.50;61.40;;;;;;5049495;28;20130;-53
2023/12/02 05:01:36;;;;;;;14.50;9.20;;;3.50;61.40;;;;;;5050262;28;20091;-52
2023/12/02 05:04:05;;;;;;;14.55;9.63;;;3.50;61.40;;;;;;5045316;28;20102;-53
2023/12/02 05:06:36;;;;;;;14.25;9.70;;;3.50;61.30;;;;;;5049309;28;20052;-49
2023/12/02 05:09:04;;;;;;;15.77;10.10;;;3.50;61.20;;;;;;5049238;28;20056;-49
2023/12/02 05:11:34;;;;;;;15.00;9.40;;;3.40;61.20;;;;;;5046229;28;20102;-49
2023/12/02 05:14:01;;;;;;;13.15;8.68;;;3.40;61.20;;;;;;5049958;28;20040;-49
2023/12/02 05:16:30;;;;;;;14.50;9.48;;;3.40;61.20;;;;;;5054374;28;20049;-53
2023/12/02 05:18:57;;;;;;;14.82;10.20;;;3.50;61.40;;;;;;5050034;28;20123;-52
2023/12/02 05:21:27;;;;;;;15.43;10.32;;;3.40;61.30;;;;;;5046643;28;20044;-50
2023/12/02 05:23:54;;;;;;;16.30;10.35;;;3.30;61.30;;;;;;5046997;28;20041;-55
2023/12/02 05:26:21;;;;;;;14.23;10.30;;;3.30;61.40;;;;;;5049284;28;20044;-50
2023/12/02 05:28:48;;;;;;;14.63;10.25;;;3.30;61.40;;;;;;5050174;28;20077;-52
2023/12/02 05:31:14;;;;;;;16.23;10.10;;;3.20;61.60;;;;;;5049845;28;20568;-52
2023/12/02 05:33:41;;;;;;;14.63;9.93;;;3.30;61.90;;;;;;5046198;28;20041;-53
2023/12/02 05:36:12;;;;;;;14.32;10.07;;;3.30;62.00;;;;;;5049833;28;20053;-54
2023/12/02 05:38:39;;;;;;;14.32;10.48;;;3.20;61.60;;;;;;5044416;28;20055;-53
2023/12/02 05:41:07;;;;;;;13.80;10.07;;;3.20;61.60;;;;;;5047370;28;20072;-50
2023/12/02 05:43:34;;;;;;;17.38;10.30;;;3.20;61.70;;;;;;5047040;28;20136;-52
2023/12/02 05:46:00;;;;;;;16.77;10.30;;;3.20;61.70;;;;;;5049551;28;20120;-50
2023/12/02 05:48:27;;;;;;;14.48;10.15;;;3.20;62.30;;;;;;5049238;28;20114;-49
2023/12/02 05:50:54;;;;;;;13.30;9.15;;;3.20;61.60;;;;;;5048228;28;20041;-50
2023/12/02 05:53:24;;;;;;;15.05;10.15;;;3.20;61.50;;;;;;5046079;28;20534;-50
2023/12/02 05:55:50;;;;;;;14.80;9.77;;;3.20;61.50;;;;;;5047651;28;20052;-51
2023/12/02 05:58:17;;;;;;;14.20;9.45;;;3.20;61.70;;;;;;5049187;28;20116;-49
2023/12/02 06:00:44;;;;;;;13.32;9.20;;;3.20;61.60;;;;;;5048345;28;20106;-50
2023/12/02 06:03:10;;;;;;;13.95;9.85;;;3.20;61.50;;;;;;5045232;28;21079;-54
2023/12/02 06:05:37;;;;;;;12.93;9.00;;;3.20;61.50;;;;;;5046442;28;20554;-50
2023/12/02 06:08:05;;;;;;;14.13;9.60;;;3.20;61.40;;;;;;5048361;28;20049;-49
2023/12/02 06:10:32;;;;;;;14.60;9.38;;;3.20;62.00;;;;;;5045613;28;20460;-51
2023/12/02 06:12:59;;;;;;;12.57;9.35;;;3.20;61.40;;;;;;5048980;28;20040;-52
2023/12/02 06:15:31;;;;;;;14.48;9.68;;;3.20;61.50;;;;;;5051083;28;20041;-49
2023/12/02 06:18:02;;;;;;;14.57;9.27;;;3.10;61.50;;;;;;5054773;28;20037;-49
2023/12/02 06:20:29;;;;;;;15.95;10.55;;;3.20;61.80;;;;;;5050362;28;20098;-49
2023/12/02 06:22:55;;;;;;;16.02;9.77;;;3.10;61.90;;;;;;5051671;28;20087;-50
2023/12/02 06:25:22;;;;;;;16.38;9.88;;;3.10;62.10;;;;;;5050554;28;20555;-50
2023/12/02 06:27:49;;;;;;;15.20;9.95;;;3.10;62.10;;;;;;5052634;28;20065;-53
2023/12/02 06:30:17;;;;;;;15.05;10.20;;;3.10;62.00;;;;;;5053001;28;20037;-50
2023/12/02 06:32:44;;;;;;;16.25;10.85;;;3.10;62.00;;;;;;5050213;28;20037;-50
2023/12/02 06:35:12;;;;;;;15.68;10.60;;;3.20;62.10;;;;;;5053308;28;20462;-53
2023/12/02 06:37:40;;;;;;;15.18;10.70;;;3.10;62.10;;;;;;5052932;28;20071;-51
2023/12/02 06:40:08;;;;;;;18.80;10.85;;;3.20;62.20;;;;;;5050778;28;20448;-50
2023/12/02 06:42:34;;;;;;;13.35;10.00;;;3.10;62.30;;;;;;5050488;28;20076;-49
2023/12/02 06:45:01;;;;;;;16.15;10.57;;;3.20;62.50;;;;;;5050873;28;20125;-53
2023/12/02 06:47:28;;;;;;;14.70;9.98;;;3.10;62.40;;;;;;5051716;28;20037;-55
2023/12/02 06:49:54;;;;;;;16.00;10.38;;;3.20;62.40;;;;;;5053154;28;20041;-54
2023/12/02 06:52:21;;;;;;;15.38;10.60;;;3.20;62.40;;;;;;5044629;28;20044;-53
2023/12/02 06:54:48;;;;;;;15.48;10.88;;;3.20;62.30;;;;;;5047453;28;20065;-54
2023/12/02 06:57:34;;;;;;;16.25;10.48;;;3.20;62.30;;;;;;5049008;28;20092;-53
2023/12/02 07:00:05;;;;;;;17.77;11.88;;;3.20;62.30;;;;;;5052494;28;20593;-50
2023/12/02 07:02:31;;;;;;;16.00;11.30;;;3.20;62.30;;;;;;5050716;28;20044;-50
2023/12/02 07:04:58;;;;;;;15.35;10.52;;;3.20;62.30;;;;;;5050811;28;20123;-54
2023/12/02 07:07:25;;;;;;;16.33;10.40;;;3.10;62.30;;;;;;5051165;28;20068;-53
2023/12/02 07:09:51;;;;;;;16.75;10.30;;;3.10;62.20;;;;;;5051231;28;20479;-54
2023/12/02 07:12:19;;;;;;;14.30;10.30;;;3.10;62.10;;;;;;5050720;28;20056;-54
2023/12/02 07:14:48;;;;;;;17.27;10.80;;;3.20;62.20;;;;;;5046715;28;20044;-52
2023/12/02 07:17:15;;;;;;;15.57;10.82;;;3.10;62.20;;;;;;5046441;28;20065;-53
2023/12/02 07:19:41;;;;;;;15.20;10.90;;;3.10;62.20;;;;;;5050979;28;20064;-52
2023/12/02 07:22:08;;;;;;;15.82;10.23;;;3.10;62.40;;;;;;5047874;28;20056;-50
2023/12/02 07:24:35;;;;;;;18.13;11.55;;;3.00;62.50;;;;;;5046882;28;20376;-52
2023/12/02 07:27:02;;;;;;;17.80;11.02;;;2.90;62.50;;;;;;5044206;28;20060;-54
2023/12/02 07:29:31;;;;;;;18.15;11.30;;;2.90;62.50;;;;;;5041940;28;20053;-54
2023/12/02 07:32:01;;;;;;;17.13;11.52;;;2.90;62.50;;;;;;5044746;28;20041;-51
2023/12/02 07:34:28;;;;;;;16.17;10.48;;;2.80;62.60;;;;;;5044937;28;20056;-52
2023/12/02 07:36:54;;;;;;;17.30;11.15;;;2.80;62.70;;;;;;5040104;28;20049;-55
2023/12/02 07:39:23;;;;;;;17.77;10.98;;;2.70;62.70;;;;;;5042277;28;20124;-52
2023/12/02 07:41:50;;;;;;;17.73;11.52;;;2.70;62.70;;;;;;5049572;28;20060;-50
2023/12/02 07:44:17;;;;;;;18.35;11.73;;;2.60;62.80;;;;;;5050465;28;20091;-56
2023/12/02 07:46:44;;;;;;;17.42;12.23;;;2.60;62.90;;;;;;5046759;28;20057;-56
2023/12/02 07:49:11;;;;;;;14.93;9.38;;;2.70;63.10;;;;;;5048510;28;20515;-52
2023/12/02 07:51:37;;;;;;;14.43;10.10;;;2.50;63.10;;;;;;5049716;28;20124;-54
2023/12/02 07:54:04;;;;;;;18.70;11.70;;;2.60;63.30;;;;;;5044553;28;20064;-55
2023/12/02 07:56:31;;;;;;;17.27;11.45;;;2.40;63.30;;;;;;5049289;28;20613;-55
2023/12/02 07:58:57;;;;;;;16.70;11.30;;;2.40;63.40;;;;;;5050357;28;20115;-53
2023/12/02 08:01:24;;;;;;;18.95;11.38;;;2.30;63.50;;;;;;5050112;28;20067;-53
2023/12/02 08:03:51;;;;;;;19.98;11.60;;;2.30;63.60;;;;;;5045145;28;20040;-52
2023/12/02 08:06:18;;;;;;;17.98;11.20;;;2.30;63.70;;;;;;5050673;28;20047;-53
2023/12/02 08:08:45;;;;;;;17.52;11.73;;;2.30;63.80;;;;;;5050892;28;20075;-51
2023/12/02 08:11:12;;;;;;;16.17;11.27;;;2.20;64.00;;;;;;5051713;28;20065;-55
2023/12/02 08:13:39;;;;;;;15.80;10.35;;;2.20;64.20;;;;;;5048781;28;20036;-50
2023/12/02 08:16:06;;;;;;;18.80;11.48;;;2.10;64.40;;;;;;5048175;28;20047;-54
2023/12/02 08:18:32;;;;;;;19.35;12.20;;;2.20;64.60;;;;;;5048862;28;20503;-52
2023/12/02 08:20:59;;;;;;;15.40;10.63;;;2.10;64.60;;;;;;5051135;28;20115;-53
2023/12/02 08:23:27;;;;;;;16.65;10.77;;;2.10;64.50;;;;;;5048946;28;20052;-56
2023/12/02 08:25:53;;;;;;;18.13;10.95;;;2.10;64.50;;;;;;5042518;28;20076;-50
2023/12/02 08:28:20;;;;;;;17.10;10.85;;;2.10;64.60;;;;;;5046994;28;20045;-55
2023/12/02 08:30:47;;;;;;;17.77;11.90;;;2.10;64.60;;;;;;5055368;28;20446;-52
2023/12/02 08:33:13;;;;;;;18.98;12.50;;;2.10;64.60;;;;;;5045653;28;20119;-53
2023/12/02 08:35:40;;;;;;;18.17;12.65;;;2.10;64.60;;;;;;5042929;28;20033;-52
2023/12/02 08:38:07;;;;;;;21.95;16.08;;;2.10;64.70;;;;;;5050816;28;20040;-55
2023/12/02 08:40:33;;;;;;;23.33;14.82;;;2.00;64.60;;;;;;5050528;28;20048;-54
2023/12/02 08:43:00;;;;;;;19.08;12.43;;;2.10;65.00;;;;;;5045274;28;20052;-55
2023/12/02 08:45:27;;;;;;;18.08;11.90;;;2.10;64.70;;;;;;5049820;28;20076;-53
2023/12/02 08:47:53;;;;;;;15.77;10.70;;;2.00;64.70;;;;;;5051386;28;20075;-52
2023/12/02 08:50:20;;;;;;;19.88;10.55;;;2.10;64.90;;;;;;5049231;28;20044;-52
2023/12/02 08:52:47;;;;;;;16.63;10.85;;;2.10;64.90;;;;;;5047186;28;20124;-54
2023/12/02 08:55:14;;;;;;;18.05;11.48;;;2.10;65.10;;;;;;5046416;28;20052;-52
2023/12/02 08:57:41;;;;;;;18.88;11.95;;;2.10;65.10;;;;;;5050994;28;20033;-54
2023/12/02 09:00:08;;;;;;;18.63;11.35;;;2.10;65.10;;;;;;5050383;28;20461;-53
2023/12/02 09:02:35;;;;;;;18.92;11.82;;;2.20;65.10;;;;;;5045533;28;20048;-54
2023/12/02 09:05:05;;;;;;;19.73;12.73;;;2.20;65.10;;;;;;5049486;28;20079;-49
2023/12/02 09:07:31;;;;;;;20.60;12.73;;;2.30;65.20;;;;;;5049995;28;20127;-52
2023/12/02 09:09:58;;;;;;;21.73;12.18;;;2.40;65.30;;;;;;5051016;28;20037;-51
2023/12/02 09:12:25;;;;;;;18.33;11.98;;;2.40;65.10;;;;;;5047248;28;20076;-49
2023/12/02 09:15:21;;;;;;;19.92;12.57;;;2.50;64.80;;;;;;5050229;28;20060;-53
2023/12/02 09:18:10;;;;;;;16.73;11.15;;;2.50;64.30;;;;;;5041599;28;20057;-53
2023/12/02 09:20:45;;;;;;;19.33;12.15;;;2.60;63.80;;;;;;5047487;28;20053;-51
2023/12/02 09:23:15;;;;;;;17.77;11.48;;;2.60;63.60;;;;;;5047039;28;20048;-55
2023/12/02 09:25:42;;;;;;;17.70;11.93;;;2.60;63.60;;;;;;5038813;28;20496;-51
2023/12/02 09:28:10;;;;;;;15.25;10.82;;;2.60;63.50;;;;;;5049279;28;20278;-54
2023/12/02 09:30:40;;;;;;;18.65;12.18;;;2.60;63.50;;;;;;5046307;28;20037;-53
2023/12/02 09:33:07;;;;;;;19.25;11.38;;;2.60;63.30;;;;;;5045287;28;20046;-51
2023/12/02 09:35:34;;;;;;;17.20;9.95;;;2.60;63.30;;;;;;5049067;28;20041;-52
2023/12/02 09:38:02;;;;;;;20.90;11.55;;;2.60;63.20;;;;;;5047863;28;20562;-52
2023/12/02 09:40:34;;;;;;;14.52;10.48;;;2.60;63.30;;;;;;5046861;28;20133;-54
2023/12/02 09:43:01;;;;;;;;;;;2.60;63.10;;;;;;5043620;28;20064;-52
2023/12/02 09:45:35;;;;;;;15.27;10.43;;;2.70;62.90;;;;;;5045523;28;20462;-54
2023/12/02 09:48:11;;;;;;;18.02;11.10;;;2.60;63.20;;;;;;5048191;28;20041;-52
2023/12/02 09:51:02;;;;;;;16.55;10.55;;;2.60;63.20;;;;;;5042287;28;20522;-52
2023/12/02 09:53:37;;;;;;;17.88;11.38;;;2.60;63.10;;;;;;5046444;28;20068;-50
2023/12/02 09:56:20;;;;;;;21.73;12.77;;;2.60;63.30;;;;;;5047085;28;20041;-54
2023/12/02 09:58:56;;;;;;;18.10;11.95;;;2.60;63.20;;;;;;5047501;28;20029;-54
2023/12/02 10:01:55;;;;;;;18.90;12.15;;;2.60;63.20;;;;;;5048744;28;20072;-50
2023/12/02 10:04:36;;;;;;;21.10;12.38;;;2.60;63.10;;;;;;5043532;28;20546;-54
2023/12/02 10:07:10;;;;;;;14.13;8.30;;;2.70;63.00;;;;;;5045010;28;20047;-51
2023/12/02 10:09:53;;;;;;;19.15;11.45;;;2.70;63.20;;;;;;5047112;28;20503;-52
2023/12/02 10:12:30;;;;;;;20.85;13.20;;;2.70;63.10;;;;;;5045834;28;20044;-55
2023/12/02 10:15:01;;;;;;;17.38;11.20;;;2.70;63.20;;;;;;5049626;28;20410;-53
2023/12/02 10:17:31;;;;;;;21.40;11.70;;;2.70;63.20;;;;;;5049379;28;20065;-53
2023/12/02 10:20:11;;;;;;;19.50;11.30;;;2.70;63.20;;;;;;5047547;28;20048;-54
2023/12/02 10:22:44;;;;;;;21.27;12.45;;;2.70;63.20;;;;;;5045376;28;20079;-52
2023/12/02 10:25:37;;;;;;;20.98;12.38;;;2.70;63.20;;;;;;5043821;28;20049;-53
2023/12/02 10:28:26;;;;;;;18.52;11.73;;;2.70;63.10;;;;;;5044239;28;20581;-50
2023/12/02 10:30:59;;;;;;;19.58;11.05;;;2.80;63.10;;;;;;5043237;28;20029;-51
2023/12/02 10:33:27;;;;;;;19.70;12.20;;;2.80;63.20;;;;;;5046974;28;20037;-53
2023/12/02 10:36:05;;;;;;;22.13;12.88;;;2.80;63.30;;;;;;5047617;28;20037;-50
2023/12/02 10:38:56;;;;;;;21.95;13.25;;;2.80;63.20;;;;;;5048576;28;20120;-53
2023/12/02 10:41:49;;;;;;;18.80;11.95;;;2.80;63.00;;;;;;5049546;28;20403;-52
2023/12/02 10:44:20;;;;;;;19.92;11.90;;;2.80;63.80;;;;;;5045718;28;20128;-54
2023/12/02 10:46:49;;;;;;;19.98;11.98;;;2.90;63.30;;;;;;5038323;28;20485;-55
2023/12/02 10:49:17;;;;;;;22.45;13.93;;;2.90;63.20;;;;;;5047857;28;20130;-52
2023/12/02 10:51:48;;;;;;;19.10;12.65;;;2.90;63.30;;;;;;5048737;28;20495;-50
2023/12/02 10:54:39;;;;;;;21.60;12.85;;;2.90;63.30;;;;;;5041200;28;20052;-51
2023/12/02 10:57:07;;;;;;;21.40;12.97;;;2.90;63.30;;;;;;5049119;28;20083;-51
2023/12/02 10:59:42;;;;;;;19.00;12.40;;;2.90;63.20;;;;;;5044339;28;20040;-51
2023/12/02 11:02:34;;;;;;;19.75;11.88;;;2.90;63.20;;;;;;5050072;28;20103;-51
2023/12/02 11:05:21;;;;;;;20.55;12.95;;;3.00;63.20;;;;;;5049249;28;20040;-55
2023/12/02 11:07:55;;;;;;;22.88;13.25;;;3.00;63.10;;;;;;5045214;28;20037;-51
2023/12/02 11:10:38;;;;;;;21.85;12.70;;;3.00;63.20;;;;;;5050994;28;20053;-53
2023/12/02 11:13:12;;;;;;;23.10;13.80;;;3.00;63.10;;;;;;5049069;28;20071;-50
2023/12/02 11:16:23;;;;;;;25.02;15.10;;;3.00;63.20;;;;;;5051055;28;20090;-50
2023/12/02 11:19:11;;;;;;;23.95;15.98;;;3.10;63.20;;;;;;5024447;28;20566;-52
2023/12/02 11:21:45;;;;;;;23.50;15.07;;;3.10;63.40;;;;;;5048568;28;20057;-50
2023/12/02 11:25:11;;;;;;;24.00;15.32;;;3.10;63.20;;;;;;5047419;28;20542;-54
2023/12/02 11:28:09;;;;;;;21.15;14.77;;;3.20;63.10;;;;;;5028798;28;20061;-52
2023/12/02 11:30:43;;;;;;;24.80;15.20;;;3.20;63.00;;;;;;5035554;28;20144;-54
2023/12/02 11:33:48;;;;;;;24.85;14.82;;;3.20;63.20;;;;;;5045495;28;20072;-54
2023/12/02 11:36:34;;;;;;;22.65;13.77;;;3.20;62.80;;;;;;5048913;28;20045;-52
2023/12/02 11:39:17;;;;;;;25.17;14.73;;;3.20;63.00;;;;;;5051244;28;20106;-52
2023/12/02 11:41:58;;;;;;;22.60;13.07;;;3.30;63.00;;;;;;5043769;28;20053;-54
2023/12/02 11:44:30;;;;;;;23.70;13.37;;;3.20;63.10;;;;;;5044427;28;20072;-54
2023/12/02 11:47:31;;;;;;;22.88;13.65;;;3.30;63.20;;;;;;5051679;28;20068;-53
2023/12/02 11:50:35;;;;;;;22.02;13.20;;;3.30;62.90;;;;;;5044954;28;20041;-54
2023/12/02 11:53:44;;;;;;;18.77;11.68;;;3.30;62.90;;;;;;5041298;28;20116;-50
2023/12/02 11:56:24;;;;;;;22.30;14.02;;;3.30;62.60;;;;;;5050483;28;20076;-53
2023/12/02 11:59:02;;;;;;;22.33;13.50;;;3.40;62.90;;;;;;5044433;28;20141;-52
2023/12/02 12:01:56;;;;;;;25.80;14.55;;;3.40;63.10;;;;;;5051889;28;20090;-53
2023/12/02 12:05:04;;;;;;;24.48;14.45;;;3.40;63.10;;;;;;5048909;28;20124;-54
2023/12/02 12:08:01;;;;;;;25.13;14.68;;;3.40;62.90;;;;;;5050997;28;20060;-54
2023/12/02 12:10:37;;;;;;;21.13;13.23;;;3.50;63.20;;;;;;5052519;28;20035;-52
2023/12/02 12:13:13;;;;;;;20.23;12.80;;;3.50;63.30;;;;;;5049819;28;20557;-53
2023/12/02 12:15:42;;;;;;;24.23;12.60;;;3.50;63.20;;;;;;5049616;28;20091;-50
2023/12/02 12:18:11;;;;;;;21.88;13.10;;;3.60;63.20;;;;;;5050778;28;20095;-50
2023/12/02 12:20:43;;;;;;;20.85;12.50;;;3.60;63.10;;;;;;5046755;28;20516;-54
2023/12/02 12:23:11;;;;;;;20.58;11.93;;;3.60;62.90;;;;;;5051372;28;20041;-53
2023/12/02 12:25:37;;;;;;;19.48;11.60;;;3.60;63.00;;;;;;5045385;28;20591;-52
2023/12/02 12:28:05;;;;;;;24.95;13.60;;;3.60;63.10;;;;;;5045002;28;20044;-54
2023/12/02 12:30:46;;;;;;;21.35;12.85;;;3.60;62.90;;;;;;5051131;28;20119;-53
2023/12/02 12:33:17;;;;;;;20.88;11.60;;;3.70;62.60;;;;;;5046717;28;20044;-51
2023/12/02 12:35:48;;;;;;;21.75;12.00;;;3.70;62.70;;;;;;5060007;28;20037;-51
2023/12/02 12:38:15;;;;;;;23.55;13.57;;;3.70;62.50;;;;;;5046528;28;20049;-50
2023/12/02 12:40:43;;;;;;;23.05;12.70;;;3.70;62.60;;;;;;5047598;28;20075;-52
2023/12/02 12:43:14;;;;;;;19.05;11.85;;;3.70;62.70;;;;;;5047114;28;20112;-52
2023/12/02 12:45:41;;;;;;;23.48;13.38;;;3.70;62.70;;;;;;5050726;28;20046;-50
2023/12/02 12:48:10;;;;;;;22.98;13.60;;;3.70;62.80;;;;;;5051124;28;20110;-54
2023/12/02 12:50:45;;;;;;;19.40;11.82;;;3.80;62.70;;;;;;5050954;28;20114;-50
2023/12/02 12:53:12;;;;;;;20.63;12.90;;;3.80;62.70;;;;;;5047331;28;20111;-53
2023/12/02 12:55:55;;;;;;;19.90;12.90;;;3.80;62.50;;;;;;5044293;28;20487;-49